sensor_id;sensor_type;location;lat;lon;timestamp;P1;durP1;ratioP1;P2;durP2;ratioP2
7205;SDS011;3644;53.480;10.004;2023-03-31T00:00:24;11.07;;;2.83;;
7205;SDS011;3644;53.480;10.004;2023-03-31T00:02:50;8.60;;;3.00;;
7205;SDS011;3644;53.480;10.004;2023-03-31T00:05:17;18.23;;;2.80;;
7205;SDS011;3644;53.480;10.004;2023-03-31T00:07:45;14.90;;;2.70;;
7205;SDS011;3644;53.480;10.004;2023-03-31T00:10:13;18.60;;;2.80;;
7205;SDS011;3644;53.480;10.004;2023-03-31T00:12:39;24.97;;;3.67;;
7205;SDS011;3644;53.480;10.004;2023-03-31T00:15:07;7.47;;;3.27;;
7205;SDS011;3644;53.480;10.004;2023-03-31T00:17:32;6.93;;;2.53;;
7205;SDS011;3644;53.480;10.004;2023-03-31T00:19:58;10.43;;;3.20;;
7205;SDS011;3644;53.480;10.004;2023-03-31T00:22:29;5.10;;;2.10;;
7205;SDS011;3644;53.480;10.004;2023-03-31T00:24:55;13.27;;;3.03;;
7205;SDS011;3644;53.480;10.004;2023-03-31T00:27:20;20.67;;;3.13;;
7205;SDS011;3644;53.480;10.004;2023-03-31T00:29:46;23.93;;;3.50;;
7205;SDS011;3644;53.480;10.004;2023-03-31T00:32:14;12.80;;;3.43;;
7205;SDS011;3644;53.480;10.004;2023-03-31T00:34:40;10.20;;;3.50;;
7205;SDS011;3644;53.480;10.004;2023-03-31T00:37:06;12.90;;;2.90;;
7205;SDS011;3644;53.480;10.004;2023-03-31T00:39:33;8.90;;;2.50;;
7205;SDS011;3644;53.480;10.004;2023-03-31T00:42:02;17.43;;;3.07;;
7205;SDS011;3644;53.480;10.004;2023-03-31T00:44:29;14.37;;;2.37;;
7205;SDS011;3644;53.480;10.004;2023-03-31T00:49:38;20.27;;;3.27;;
7205;SDS011;3644;53.480;10.004;2023-03-31T00:54:49;20.10;;;3.70;;
7205;SDS011;3644;53.480;10.004;2023-03-31T00:57:18;17.80;;;3.87;;
7205;SDS011;3644;53.480;10.004;2023-03-31T00:59:45;13.73;;;3.03;;
7205;SDS011;3644;53.480;10.004;2023-03-31T01:02:14;11.30;;;2.90;;
7205;SDS011;3644;53.480;10.004;2023-03-31T01:04:45;10.30;;;2.70;;
7205;SDS011;3644;53.480;10.004;2023-03-31T01:07:21;14.30;;;2.37;;
7205;SDS011;3644;53.480;10.004;2023-03-31T01:09:52;10.63;;;3.80;;
7205;SDS011;3644;53.480;10.004;2023-03-31T01:12:20;7.77;;;2.70;;
7205;SDS011;3644;53.480;10.004;2023-03-31T01:14:48;10.73;;;2.67;;
7205;SDS011;3644;53.480;10.004;2023-03-31T01:17:14;18.27;;;3.47;;
7205;SDS011;3644;53.480;10.004;2023-03-31T01:22:49;11.20;;;2.67;;
7205;SDS011;3644;53.480;10.004;2023-03-31T01:31:13;15.83;;;3.67;;
7205;SDS011;3644;53.480;10.004;2023-03-31T01:42:40;11.80;;;2.97;;
7205;SDS011;3644;53.480;10.004;2023-03-31T01:45:32;13.77;;;2.80;;
7205;SDS011;3644;53.480;10.004;2023-03-31T01:50:50;10.17;;;2.70;;
7205;SDS011;3644;53.480;10.004;2023-03-31T01:53:34;21.77;;;3.73;;
7205;SDS011;3644;53.480;10.004;2023-03-31T01:56:09;18.37;;;3.50;;
7205;SDS011;3644;53.480;10.004;2023-03-31T01:59:28;23.70;;;4.30;;
7205;SDS011;3644;53.480;10.004;2023-03-31T02:01:50;11.37;;;4.23;;
7205;SDS011;3644;53.480;10.004;2023-03-31T02:04:25;12.97;;;4.73;;
7205;SDS011;3644;53.480;10.004;2023-03-31T02:07:03;11.80;;;3.30;;
7205;SDS011;3644;53.480;10.004;2023-03-31T02:09:37;18.03;;;4.00;;
7205;SDS011;3644;53.480;10.004;2023-03-31T02:12:06;12.43;;;4.00;;
7205;SDS011;3644;53.480;10.004;2023-03-31T02:14:35;16.27;;;3.77;;
7205;SDS011;3644;53.480;10.004;2023-03-31T02:17:03;9.70;;;3.20;;
7205;SDS011;3644;53.480;10.004;2023-03-31T02:19:33;12.93;;;4.60;;
7205;SDS011;3644;53.480;10.004;2023-03-31T02:22:02;11.27;;;3.83;;
7205;SDS011;3644;53.480;10.004;2023-03-31T02:24:30;10.27;;;3.20;;
7205;SDS011;3644;53.480;10.004;2023-03-31T02:27:05;11.27;;;4.07;;
7205;SDS011;3644;53.480;10.004;2023-03-31T02:29:39;11.17;;;3.63;;
7205;SDS011;3644;53.480;10.004;2023-03-31T02:34:40;11.23;;;3.87;;
7205;SDS011;3644;53.480;10.004;2023-03-31T02:37:06;18.37;;;5.13;;
7205;SDS011;3644;53.480;10.004;2023-03-31T02:39:33;8.47;;;3.67;;
7205;SDS011;3644;53.480;10.004;2023-03-31T02:41:59;15.63;;;4.43;;
7205;SDS011;3644;53.480;10.004;2023-03-31T02:44:30;8.40;;;4.10;;
7205;SDS011;3644;53.480;10.004;2023-03-31T02:47:01;15.70;;;4.30;;
7205;SDS011;3644;53.480;10.004;2023-03-31T02:49:29;9.23;;;4.10;;
7205;SDS011;3644;53.480;10.004;2023-03-31T03:03:14;9.13;;;3.57;;
7205;SDS011;3644;53.480;10.004;2023-03-31T03:06:17;9.90;;;3.83;;
7205;SDS011;3644;53.480;10.004;2023-03-31T03:12:06;8.90;;;3.63;;
7205;SDS011;3644;53.480;10.004;2023-03-31T03:17:22;18.63;;;4.00;;
7205;SDS011;3644;53.480;10.004;2023-03-31T03:19:55;14.77;;;3.50;;
7205;SDS011;3644;53.480;10.004;2023-03-31T03:22:24;15.87;;;4.70;;
7205;SDS011;3644;53.480;10.004;2023-03-31T03:24:50;7.73;;;4.43;;
7205;SDS011;3644;53.480;10.004;2023-03-31T03:27:16;13.13;;;3.87;;
7205;SDS011;3644;53.480;10.004;2023-03-31T03:29:41;14.90;;;4.87;;
7205;SDS011;3644;53.480;10.004;2023-03-31T03:32:08;11.37;;;3.60;;
7205;SDS011;3644;53.480;10.004;2023-03-31T03:34:34;11.83;;;3.87;;
7205;SDS011;3644;53.480;10.004;2023-03-31T03:36:59;13.30;;;4.10;;
7205;SDS011;3644;53.480;10.004;2023-03-31T03:39:25;13.80;;;4.20;;
7205;SDS011;3644;53.480;10.004;2023-03-31T03:41:50;10.50;;;4.07;;
7205;SDS011;3644;53.480;10.004;2023-03-31T03:44:16;15.23;;;4.00;;
7205;SDS011;3644;53.480;10.004;2023-03-31T03:46:42;12.23;;;4.27;;
7205;SDS011;3644;53.480;10.004;2023-03-31T03:49:07;10.47;;;4.13;;
7205;SDS011;3644;53.480;10.004;2023-03-31T03:51:33;14.93;;;3.93;;
7205;SDS011;3644;53.480;10.004;2023-03-31T03:53:58;18.33;;;5.93;;
7205;SDS011;3644;53.480;10.004;2023-03-31T03:56:24;12.70;;;4.60;;
7205;SDS011;3644;53.480;10.004;2023-03-31T03:58:50;9.00;;;4.00;;
7205;SDS011;3644;53.480;10.004;2023-03-31T04:01:16;12.17;;;4.60;;
7205;SDS011;3644;53.480;10.004;2023-03-31T04:03:42;10.70;;;4.83;;
7205;SDS011;3644;53.480;10.004;2023-03-31T04:06:07;11.60;;;5.50;;
7205;SDS011;3644;53.480;10.004;2023-03-31T04:08:33;17.63;;;6.00;;
7205;SDS011;3644;53.480;10.004;2023-03-31T04:10:58;12.10;;;4.90;;
7205;SDS011;3644;53.480;10.004;2023-03-31T04:13:24;14.03;;;5.50;;
7205;SDS011;3644;53.480;10.004;2023-03-31T04:15:49;21.00;;;6.40;;
7205;SDS011;3644;53.480;10.004;2023-03-31T04:18:15;18.53;;;5.20;;
7205;SDS011;3644;53.480;10.004;2023-03-31T04:20:50;16.93;;;6.30;;
7205;SDS011;3644;53.480;10.004;2023-03-31T04:23:28;13.63;;;5.90;;
7205;SDS011;3644;53.480;10.004;2023-03-31T04:25:58;15.70;;;7.17;;
7205;SDS011;3644;53.480;10.004;2023-03-31T04:28:24;18.53;;;6.77;;
7205;SDS011;3644;53.480;10.004;2023-03-31T04:30:51;20.00;;;8.17;;
7205;SDS011;3644;53.480;10.004;2023-03-31T04:33:18;19.43;;;8.07;;
7205;SDS011;3644;53.480;10.004;2023-03-31T04:35:45;16.63;;;7.07;;
7205;SDS011;3644;53.480;10.004;2023-03-31T04:38:14;13.30;;;6.80;;
7205;SDS011;3644;53.480;10.004;2023-03-31T04:40:44;15.77;;;7.40;;
7205;SDS011;3644;53.480;10.004;2023-03-31T04:43:11;18.77;;;7.90;;
7205;SDS011;3644;53.480;10.004;2023-03-31T04:45:37;18.70;;;7.90;;
7205;SDS011;3644;53.480;10.004;2023-03-31T04:48:02;14.30;;;5.80;;
7205;SDS011;3644;53.480;10.004;2023-03-31T04:50:28;15.50;;;7.13;;
7205;SDS011;3644;53.480;10.004;2023-03-31T04:52:53;9.80;;;6.03;;
7205;SDS011;3644;53.480;10.004;2023-03-31T04:55:19;23.40;;;6.47;;
7205;SDS011;3644;53.480;10.004;2023-03-31T04:57:45;12.53;;;6.37;;
7205;SDS011;3644;53.480;10.004;2023-03-31T05:00:11;12.47;;;6.07;;
7205;SDS011;3644;53.480;10.004;2023-03-31T05:02:37;15.10;;;6.87;;
7205;SDS011;3644;53.480;10.004;2023-03-31T05:05:02;12.57;;;6.77;;
7205;SDS011;3644;53.480;10.004;2023-03-31T05:07:28;12.20;;;6.40;;
7205;SDS011;3644;53.480;10.004;2023-03-31T05:09:54;23.37;;;6.70;;
7205;SDS011;3644;53.480;10.004;2023-03-31T05:12:19;11.33;;;5.80;;
7205;SDS011;3644;53.480;10.004;2023-03-31T05:14:45;14.20;;;6.50;;
7205;SDS011;3644;53.480;10.004;2023-03-31T05:17:11;17.77;;;6.17;;
7205;SDS011;3644;53.480;10.004;2023-03-31T05:19:36;16.50;;;6.03;;
7205;SDS011;3644;53.480;10.004;2023-03-31T05:22:02;21.23;;;6.30;;
7205;SDS011;3644;53.480;10.004;2023-03-31T05:24:27;18.33;;;8.43;;
7205;SDS011;3644;53.480;10.004;2023-03-31T05:26:54;10.43;;;5.03;;
7205;SDS011;3644;53.480;10.004;2023-03-31T05:29:21;12.70;;;5.80;;
7205;SDS011;3644;53.480;10.004;2023-03-31T05:31:47;17.00;;;5.63;;
7205;SDS011;3644;53.480;10.004;2023-03-31T05:34:13;14.90;;;5.50;;
7205;SDS011;3644;53.480;10.004;2023-03-31T05:36:39;10.93;;;4.90;;
7205;SDS011;3644;53.480;10.004;2023-03-31T05:39:07;12.50;;;5.37;;
7205;SDS011;3644;53.480;10.004;2023-03-31T05:41:33;16.43;;;5.00;;
7205;SDS011;3644;53.480;10.004;2023-03-31T05:43:58;10.60;;;5.17;;
7205;SDS011;3644;53.480;10.004;2023-03-31T05:46:24;18.03;;;5.60;;
7205;SDS011;3644;53.480;10.004;2023-03-31T05:48:51;5.80;;;4.73;;
7205;SDS011;3644;53.480;10.004;2023-03-31T05:51:16;13.57;;;5.23;;
7205;SDS011;3644;53.480;10.004;2023-03-31T05:53:42;11.93;;;5.60;;
7205;SDS011;3644;53.480;10.004;2023-03-31T05:56:08;9.80;;;5.00;;
7205;SDS011;3644;53.480;10.004;2023-03-31T05:58:34;17.70;;;4.77;;
7205;SDS011;3644;53.480;10.004;2023-03-31T06:01:04;22.63;;;5.60;;
7205;SDS011;3644;53.480;10.004;2023-03-31T06:03:36;11.43;;;5.27;;
7205;SDS011;3644;53.480;10.004;2023-03-31T06:06:05;11.20;;;4.80;;
7205;SDS011;3644;53.480;10.004;2023-03-31T06:08:31;9.03;;;4.80;;
7205;SDS011;3644;53.480;10.004;2023-03-31T06:10:58;14.03;;;4.77;;
7205;SDS011;3644;53.480;10.004;2023-03-31T06:13:23;14.83;;;4.63;;
7205;SDS011;3644;53.480;10.004;2023-03-31T06:15:55;12.40;;;5.37;;
7205;SDS011;3644;53.480;10.004;2023-03-31T06:18:23;15.03;;;5.90;;
7205;SDS011;3644;53.480;10.004;2023-03-31T06:20:52;8.30;;;5.10;;
7205;SDS011;3644;53.480;10.004;2023-03-31T06:23:18;7.90;;;4.07;;
7205;SDS011;3644;53.480;10.004;2023-03-31T06:25:44;15.63;;;6.03;;
7205;SDS011;3644;53.480;10.004;2023-03-31T06:28:09;10.10;;;4.30;;
7205;SDS011;3644;53.480;10.004;2023-03-31T06:30:35;16.10;;;5.07;;
7205;SDS011;3644;53.480;10.004;2023-03-31T06:33:00;13.13;;;4.03;;
7205;SDS011;3644;53.480;10.004;2023-03-31T06:35:26;8.97;;;5.30;;
7205;SDS011;3644;53.480;10.004;2023-03-31T06:37:51;18.33;;;6.40;;
7205;SDS011;3644;53.480;10.004;2023-03-31T06:40:17;8.93;;;4.50;;
7205;SDS011;3644;53.480;10.004;2023-03-31T06:42:43;12.13;;;5.53;;
7205;SDS011;3644;53.480;10.004;2023-03-31T06:45:08;12.73;;;6.67;;
7205;SDS011;3644;53.480;10.004;2023-03-31T06:47:34;12.90;;;6.03;;
7205;SDS011;3644;53.480;10.004;2023-03-31T06:50:02;11.63;;;4.93;;
7205;SDS011;3644;53.480;10.004;2023-03-31T06:52:31;8.60;;;4.50;;
7205;SDS011;3644;53.480;10.004;2023-03-31T06:54:57;8.80;;;3.83;;
7205;SDS011;3644;53.480;10.004;2023-03-31T06:57:24;9.10;;;4.23;;
7205;SDS011;3644;53.480;10.004;2023-03-31T06:59:50;8.57;;;4.23;;
7205;SDS011;3644;53.480;10.004;2023-03-31T07:02:15;8.60;;;4.13;;
7205;SDS011;3644;53.480;10.004;2023-03-31T07:04:41;7.07;;;4.10;;
7205;SDS011;3644;53.480;10.004;2023-03-31T07:07:06;11.73;;;4.10;;
7205;SDS011;3644;53.480;10.004;2023-03-31T07:09:32;15.00;;;4.30;;
7205;SDS011;3644;53.480;10.004;2023-03-31T07:11:57;9.70;;;4.50;;
7205;SDS011;3644;53.480;10.004;2023-03-31T07:14:23;14.37;;;4.93;;
7205;SDS011;3644;53.480;10.004;2023-03-31T07:16:49;15.70;;;5.00;;
7205;SDS011;3644;53.480;10.004;2023-03-31T07:19:14;12.40;;;3.80;;
7205;SDS011;3644;53.480;10.004;2023-03-31T07:21:40;6.70;;;3.67;;
7205;SDS011;3644;53.480;10.004;2023-03-31T07:24:06;9.47;;;4.40;;
7205;SDS011;3644;53.480;10.004;2023-03-31T07:26:31;14.43;;;5.10;;
7205;SDS011;3644;53.480;10.004;2023-03-31T07:28:57;17.30;;;5.83;;
7205;SDS011;3644;53.480;10.004;2023-03-31T07:31:23;15.83;;;3.73;;
7205;SDS011;3644;53.480;10.004;2023-03-31T07:33:49;10.90;;;4.17;;
7205;SDS011;3644;53.480;10.004;2023-03-31T07:36:15;10.83;;;4.27;;
7205;SDS011;3644;53.480;10.004;2023-03-31T07:38:42;12.87;;;4.20;;
7205;SDS011;3644;53.480;10.004;2023-03-31T07:41:14;13.03;;;3.70;;
7205;SDS011;3644;53.480;10.004;2023-03-31T07:43:41;7.23;;;3.20;;
7205;SDS011;3644;53.480;10.004;2023-03-31T07:46:12;14.47;;;6.10;;
7205;SDS011;3644;53.480;10.004;2023-03-31T07:48:46;14.80;;;4.97;;
7205;SDS011;3644;53.480;10.004;2023-03-31T07:51:13;13.23;;;5.20;;
7205;SDS011;3644;53.480;10.004;2023-03-31T07:53:43;17.33;;;5.30;;
7205;SDS011;3644;53.480;10.004;2023-03-31T07:56:09;12.83;;;4.97;;
7205;SDS011;3644;53.480;10.004;2023-03-31T07:58:34;13.67;;;4.87;;
7205;SDS011;3644;53.480;10.004;2023-03-31T08:01:00;6.80;;;3.60;;
7205;SDS011;3644;53.480;10.004;2023-03-31T08:03:26;9.00;;;3.87;;
7205;SDS011;3644;53.480;10.004;2023-03-31T08:05:51;8.83;;;2.57;;
7205;SDS011;3644;53.480;10.004;2023-03-31T08:08:17;7.23;;;3.20;;
7205;SDS011;3644;53.480;10.004;2023-03-31T08:10:43;4.70;;;2.67;;
7205;SDS011;3644;53.480;10.004;2023-03-31T08:13:09;4.80;;;2.80;;
7205;SDS011;3644;53.480;10.004;2023-03-31T08:15:35;17.33;;;4.17;;
7205;SDS011;3644;53.480;10.004;2023-03-31T08:18:01;7.73;;;2.87;;
7205;SDS011;3644;53.480;10.004;2023-03-31T08:20:27;6.13;;;2.97;;
7205;SDS011;3644;53.480;10.004;2023-03-31T08:22:53;6.00;;;2.30;;
7205;SDS011;3644;53.480;10.004;2023-03-31T08:25:19;8.83;;;2.53;;
7205;SDS011;3644;53.480;10.004;2023-03-31T08:27:45;5.03;;;2.30;;
7205;SDS011;3644;53.480;10.004;2023-03-31T08:30:14;7.97;;;2.50;;
7205;SDS011;3644;53.480;10.004;2023-03-31T08:32:41;7.17;;;2.80;;
7205;SDS011;3644;53.480;10.004;2023-03-31T08:35:07;7.20;;;2.80;;
7205;SDS011;3644;53.480;10.004;2023-03-31T08:37:33;5.33;;;2.00;;
7205;SDS011;3644;53.480;10.004;2023-03-31T08:39:59;5.57;;;2.43;;
7205;SDS011;3644;53.480;10.004;2023-03-31T08:42:35;7.60;;;3.53;;
7205;SDS011;3644;53.480;10.004;2023-03-31T08:48:05;5.30;;;2.47;;
7205;SDS011;3644;53.480;10.004;2023-03-31T08:50:46;2.50;;;1.70;;
7205;SDS011;3644;53.480;10.004;2023-03-31T08:53:38;4.73;;;2.30;;
7205;SDS011;3644;53.480;10.004;2023-03-31T08:56:08;7.27;;;2.37;;
7205;SDS011;3644;53.480;10.004;2023-03-31T08:58:45;5.10;;;1.77;;
7205;SDS011;3644;53.480;10.004;2023-03-31T09:01:18;3.00;;;1.90;;
7205;SDS011;3644;53.480;10.004;2023-03-31T09:06:45;3.80;;;2.20;;
7205;SDS011;3644;53.480;10.004;2023-03-31T09:12:11;5.67;;;2.30;;
7205;SDS011;3644;53.480;10.004;2023-03-31T09:14:58;4.60;;;2.00;;
7205;SDS011;3644;53.480;10.004;2023-03-31T09:17:26;5.33;;;2.07;;
7205;SDS011;3644;53.480;10.004;2023-03-31T09:22:35;2.87;;;2.17;;
7205;SDS011;3644;53.480;10.004;2023-03-31T09:25:12;9.97;;;2.27;;
7205;SDS011;3644;53.480;10.004;2023-03-31T09:27:56;8.20;;;1.83;;
7205;SDS011;3644;53.480;10.004;2023-03-31T09:30:25;3.23;;;2.20;;
7205;SDS011;3644;53.480;10.004;2023-03-31T09:33:13;2.10;;;1.70;;
7205;SDS011;3644;53.480;10.004;2023-03-31T09:35:42;4.60;;;1.77;;
7205;SDS011;3644;53.480;10.004;2023-03-31T09:38:09;5.07;;;1.97;;
7205;SDS011;3644;53.480;10.004;2023-03-31T09:40:36;3.03;;;2.20;;
7205;SDS011;3644;53.480;10.004;2023-03-31T09:43:06;5.70;;;2.03;;
7205;SDS011;3644;53.480;10.004;2023-03-31T09:45:34;4.83;;;2.17;;
7205;SDS011;3644;53.480;10.004;2023-03-31T09:48:01;11.53;;;3.97;;
7205;SDS011;3644;53.480;10.004;2023-03-31T09:50:39;5.20;;;2.03;;
7205;SDS011;3644;53.480;10.004;2023-03-31T09:53:10;6.03;;;2.13;;
7205;SDS011;3644;53.480;10.004;2023-03-31T09:55:52;5.43;;;2.20;;
7205;SDS011;3644;53.480;10.004;2023-03-31T09:58:20;7.53;;;2.70;;
7205;SDS011;3644;53.480;10.004;2023-03-31T10:03:50;9.93;;;5.00;;
7205;SDS011;3644;53.480;10.004;2023-03-31T10:06:18;11.00;;;4.83;;
7205;SDS011;3644;53.480;10.004;2023-03-31T10:08:54;2.10;;;1.83;;
7205;SDS011;3644;53.480;10.004;2023-03-31T10:11:27;5.93;;;3.47;;
7205;SDS011;3644;53.480;10.004;2023-03-31T10:13:58;15.27;;;3.10;;
7205;SDS011;3644;53.480;10.004;2023-03-31T10:18:53;9.70;;;4.10;;
7205;SDS011;3644;53.480;10.004;2023-03-31T10:21:22;6.87;;;2.50;;
7205;SDS011;3644;53.480;10.004;2023-03-31T10:23:50;5.33;;;2.37;;
7205;SDS011;3644;53.480;10.004;2023-03-31T10:26:23;6.40;;;4.13;;
7205;SDS011;3644;53.480;10.004;2023-03-31T10:28:51;8.37;;;3.00;;
7205;SDS011;3644;53.480;10.004;2023-03-31T10:31:19;3.13;;;1.70;;
7205;SDS011;3644;53.480;10.004;2023-03-31T10:33:48;7.10;;;1.90;;
7205;SDS011;3644;53.480;10.004;2023-03-31T10:38:50;4.63;;;1.90;;
7205;SDS011;3644;53.480;10.004;2023-03-31T10:41:18;2.90;;;1.90;;
7205;SDS011;3644;53.480;10.004;2023-03-31T10:43:49;6.40;;;1.90;;
7205;SDS011;3644;53.480;10.004;2023-03-31T10:46:16;4.73;;;1.70;;
7205;SDS011;3644;53.480;10.004;2023-03-31T10:48:42;2.30;;;1.57;;
7205;SDS011;3644;53.480;10.004;2023-03-31T10:53:45;4.53;;;1.90;;
7205;SDS011;3644;53.480;10.004;2023-03-31T10:58:47;5.80;;;2.00;;
7205;SDS011;3644;53.480;10.004;2023-03-31T11:07:11;3.97;;;1.70;;
7205;SDS011;3644;53.480;10.004;2023-03-31T11:09:58;5.30;;;2.00;;
7205;SDS011;3644;53.480;10.004;2023-03-31T11:15:28;2.60;;;1.47;;
7205;SDS011;3644;53.480;10.004;2023-03-31T11:23:25;4.03;;;1.80;;
7205;SDS011;3644;53.480;10.004;2023-03-31T11:26:15;4.20;;;1.40;;
7205;SDS011;3644;53.480;10.004;2023-03-31T11:29:02;5.33;;;1.63;;
7205;SDS011;3644;53.480;10.004;2023-03-31T11:45:32;4.80;;;1.93;;
7205;SDS011;3644;53.480;10.004;2023-03-31T11:48:19;9.70;;;2.00;;
7205;SDS011;3644;53.480;10.004;2023-03-31T11:50:52;1.93;;;1.47;;
7205;SDS011;3644;53.480;10.004;2023-03-31T11:53:23;7.67;;;2.80;;
7205;SDS011;3644;53.480;10.004;2023-03-31T11:55:53;5.57;;;1.73;;
7205;SDS011;3644;53.480;10.004;2023-03-31T11:58:23;4.37;;;1.80;;
7205;SDS011;3644;53.480;10.004;2023-03-31T12:07:03;4.57;;;2.00;;
7205;SDS011;3644;53.480;10.004;2023-03-31T12:12:14;10.20;;;2.60;;
7205;SDS011;3644;53.480;10.004;2023-03-31T12:14:50;2.90;;;2.07;;
7205;SDS011;3644;53.480;10.004;2023-03-31T12:17:25;2.50;;;1.60;;
7205;SDS011;3644;53.480;10.004;2023-03-31T12:20:02;1.83;;;1.70;;
7205;SDS011;3644;53.480;10.004;2023-03-31T12:22:41;1.67;;;1.50;;
7205;SDS011;3644;53.480;10.004;2023-03-31T12:25:14;4.80;;;2.73;;
7205;SDS011;3644;53.480;10.004;2023-03-31T12:27:46;3.70;;;1.73;;
7205;SDS011;3644;53.480;10.004;2023-03-31T12:30:19;4.20;;;1.90;;
7205;SDS011;3644;53.480;10.004;2023-03-31T12:32:57;3.80;;;1.97;;
7205;SDS011;3644;53.480;10.004;2023-03-31T12:35:28;2.03;;;1.93;;
7205;SDS011;3644;53.480;10.004;2023-03-31T12:46:50;1.80;;;1.70;;
7205;SDS011;3644;53.480;10.004;2023-03-31T12:53:31;3.70;;;1.93;;
7205;SDS011;3644;53.480;10.004;2023-03-31T12:55:48;2.73;;;1.67;;
7205;SDS011;3644;53.480;10.004;2023-03-31T13:06:00;3.23;;;2.00;;
7205;SDS011;3644;53.480;10.004;2023-03-31T13:16:28;3.53;;;1.97;;
7205;SDS011;3644;53.480;10.004;2023-03-31T13:18:54;2.87;;;2.57;;
7205;SDS011;3644;53.480;10.004;2023-03-31T13:21:21;3.57;;;2.23;;
7205;SDS011;3644;53.480;10.004;2023-03-31T13:23:47;5.80;;;2.20;;
7205;SDS011;3644;53.480;10.004;2023-03-31T13:29:08;5.10;;;2.23;;
7205;SDS011;3644;53.480;10.004;2023-03-31T13:34:25;5.80;;;2.60;;
7205;SDS011;3644;53.480;10.004;2023-03-31T13:37:16;4.60;;;2.90;;
7205;SDS011;3644;53.480;10.004;2023-03-31T13:40:12;6.23;;;2.60;;
7205;SDS011;3644;53.480;10.004;2023-03-31T13:43:11;2.40;;;2.00;;
7205;SDS011;3644;53.480;10.004;2023-03-31T13:49:07;3.57;;;2.23;;
7205;SDS011;3644;53.480;10.004;2023-03-31T14:07:57;1.90;;;1.60;;
7205;SDS011;3644;53.480;10.004;2023-03-31T14:10:27;3.23;;;1.57;;
7205;SDS011;3644;53.480;10.004;2023-03-31T14:13:05;2.30;;;1.57;;
7205;SDS011;3644;53.480;10.004;2023-03-31T14:15:58;2.87;;;1.80;;
7205;SDS011;3644;53.480;10.004;2023-03-31T14:18:25;4.20;;;1.67;;
7205;SDS011;3644;53.480;10.004;2023-03-31T14:23:39;3.03;;;1.90;;
7205;SDS011;3644;53.480;10.004;2023-03-31T14:26:44;2.73;;;2.10;;
7205;SDS011;3644;53.480;10.004;2023-03-31T14:32:12;1.93;;;1.73;;
7205;SDS011;3644;53.480;10.004;2023-03-31T14:37:50;3.70;;;2.17;;
7205;SDS011;3644;53.480;10.004;2023-03-31T14:40:17;1.93;;;1.70;;
7205;SDS011;3644;53.480;10.004;2023-03-31T14:42:44;5.57;;;1.80;;
7205;SDS011;3644;53.480;10.004;2023-03-31T14:47:55;12.70;;;4.33;;
7205;SDS011;3644;53.480;10.004;2023-03-31T14:50:40;7.20;;;3.70;;
7205;SDS011;3644;53.480;10.004;2023-03-31T14:53:15;8.30;;;2.53;;
7205;SDS011;3644;53.480;10.004;2023-03-31T14:55:42;2.73;;;2.03;;
7205;SDS011;3644;53.480;10.004;2023-03-31T14:58:10;2.87;;;2.17;;
7205;SDS011;3644;53.480;10.004;2023-03-31T15:00:40;3.37;;;2.30;;
7205;SDS011;3644;53.480;10.004;2023-03-31T15:03:07;4.37;;;2.00;;
7205;SDS011;3644;53.480;10.004;2023-03-31T15:05:37;7.13;;;3.40;;
7205;SDS011;3644;53.480;10.004;2023-03-31T15:08:11;6.20;;;2.43;;
7205;SDS011;3644;53.480;10.004;2023-03-31T15:10:42;5.33;;;2.33;;
7205;SDS011;3644;53.480;10.004;2023-03-31T15:13:28;5.70;;;3.30;;
7205;SDS011;3644;53.480;10.004;2023-03-31T15:16:17;2.03;;;1.40;;
7205;SDS011;3644;53.480;10.004;2023-03-31T15:18:55;1.77;;;1.67;;
7205;SDS011;3644;53.480;10.004;2023-03-31T15:21:23;5.30;;;1.60;;
7205;SDS011;3644;53.480;10.004;2023-03-31T15:23:56;2.83;;;2.30;;
7205;SDS011;3644;53.480;10.004;2023-03-31T15:26:30;9.83;;;4.17;;
7205;SDS011;3644;53.480;10.004;2023-03-31T15:29:07;1.50;;;1.40;;
7205;SDS011;3644;53.480;10.004;2023-03-31T15:31:40;1.80;;;1.60;;
7205;SDS011;3644;53.480;10.004;2023-03-31T15:34:19;2.73;;;2.37;;
7205;SDS011;3644;53.480;10.004;2023-03-31T15:36:49;1.60;;;1.50;;
7205;SDS011;3644;53.480;10.004;2023-03-31T15:39:17;8.97;;;2.27;;
7205;SDS011;3644;53.480;10.004;2023-03-31T15:41:43;11.40;;;6.27;;
7205;SDS011;3644;53.480;10.004;2023-03-31T15:47:18;1.63;;;1.53;;
7205;SDS011;3644;53.480;10.004;2023-03-31T15:49:56;1.47;;;1.37;;
7205;SDS011;3644;53.480;10.004;2023-03-31T15:52:28;2.50;;;1.60;;
7205;SDS011;3644;53.480;10.004;2023-03-31T15:54:57;1.83;;;1.57;;
7205;SDS011;3644;53.480;10.004;2023-03-31T15:57:34;1.30;;;1.20;;
7205;SDS011;3644;53.480;10.004;2023-03-31T16:00:00;1.00;;;1.00;;
7205;SDS011;3644;53.480;10.004;2023-03-31T16:02:36;2.37;;;1.17;;
7205;SDS011;3644;53.480;10.004;2023-03-31T16:05:06;1.20;;;1.20;;
7205;SDS011;3644;53.480;10.004;2023-03-31T16:07:43;1.37;;;1.00;;
7205;SDS011;3644;53.480;10.004;2023-03-31T16:10:15;2.10;;;1.10;;
7205;SDS011;3644;53.480;10.004;2023-03-31T16:15:16;2.70;;;2.50;;
7205;SDS011;3644;53.480;10.004;2023-03-31T16:17:49;3.60;;;2.40;;
7205;SDS011;3644;53.480;10.004;2023-03-31T16:20:19;1.80;;;1.70;;
7205;SDS011;3644;53.480;10.004;2023-03-31T16:22:46;2.57;;;2.00;;
7205;SDS011;3644;53.480;10.004;2023-03-31T16:25:17;1.40;;;1.30;;
7205;SDS011;3644;53.480;10.004;2023-03-31T16:27:50;6.90;;;2.47;;
7205;SDS011;3644;53.480;10.004;2023-03-31T16:30:43;7.00;;;3.90;;
7205;SDS011;3644;53.480;10.004;2023-03-31T16:33:10;3.13;;;2.10;;
7205;SDS011;3644;53.480;10.004;2023-03-31T16:35:50;5.47;;;3.53;;
7205;SDS011;3644;53.480;10.004;2023-03-31T16:38:18;5.90;;;3.27;;
7205;SDS011;3644;53.480;10.004;2023-03-31T16:40:45;16.20;;;6.00;;
7205;SDS011;3644;53.480;10.004;2023-03-31T16:43:16;40.63;;;16.20;;
7205;SDS011;3644;53.480;10.004;2023-03-31T16:45:44;22.57;;;7.10;;
7205;SDS011;3644;53.480;10.004;2023-03-31T16:48:11;30.67;;;10.20;;
7205;SDS011;3644;53.480;10.004;2023-03-31T16:50:38;36.23;;;10.90;;
7205;SDS011;3644;53.480;10.004;2023-03-31T16:53:05;21.47;;;7.20;;
7205;SDS011;3644;53.480;10.004;2023-03-31T16:55:30;9.27;;;4.37;;
7205;SDS011;3644;53.480;10.004;2023-03-31T16:57:57;14.43;;;3.53;;
7205;SDS011;3644;53.480;10.004;2023-03-31T17:00:26;9.10;;;2.83;;
7205;SDS011;3644;53.480;10.004;2023-03-31T17:02:56;9.40;;;4.77;;
7205;SDS011;3644;53.480;10.004;2023-03-31T17:05:22;26.23;;;10.67;;
7205;SDS011;3644;53.480;10.004;2023-03-31T17:07:49;58.87;;;25.80;;
7205;SDS011;3644;53.480;10.004;2023-03-31T17:10:15;15.77;;;7.93;;
7205;SDS011;3644;53.480;10.004;2023-03-31T17:12:40;26.67;;;12.60;;
7205;SDS011;3644;53.480;10.004;2023-03-31T17:15:06;17.23;;;9.63;;
7205;SDS011;3644;53.480;10.004;2023-03-31T17:17:32;6.83;;;5.27;;
7205;SDS011;3644;53.480;10.004;2023-03-31T17:19:58;8.57;;;6.40;;
7205;SDS011;3644;53.480;10.004;2023-03-31T17:22:23;5.40;;;3.03;;
7205;SDS011;3644;53.480;10.004;2023-03-31T17:24:49;4.53;;;2.50;;
7205;SDS011;3644;53.480;10.004;2023-03-31T17:27:20;2.47;;;2.20;;
7205;SDS011;3644;53.480;10.004;2023-03-31T17:29:46;1.90;;;1.70;;
7205;SDS011;3644;53.480;10.004;2023-03-31T17:32:12;3.90;;;1.80;;
7205;SDS011;3644;53.480;10.004;2023-03-31T17:34:38;1.70;;;1.60;;
7205;SDS011;3644;53.480;10.004;2023-03-31T17:37:05;2.83;;;2.00;;
7205;SDS011;3644;53.480;10.004;2023-03-31T17:39:30;2.70;;;1.90;;
7205;SDS011;3644;53.480;10.004;2023-03-31T17:41:56;2.07;;;1.50;;
7205;SDS011;3644;53.480;10.004;2023-03-31T17:44:22;2.70;;;1.50;;
7205;SDS011;3644;53.480;10.004;2023-03-31T17:46:48;1.37;;;1.37;;
7205;SDS011;3644;53.480;10.004;2023-03-31T17:49:13;6.83;;;2.23;;
7205;SDS011;3644;53.480;10.004;2023-03-31T17:51:41;8.87;;;3.17;;
7205;SDS011;3644;53.480;10.004;2023-03-31T17:54:07;7.20;;;2.70;;
7205;SDS011;3644;53.480;10.004;2023-03-31T17:56:33;3.00;;;2.13;;
7205;SDS011;3644;53.480;10.004;2023-03-31T17:58:59;5.70;;;2.60;;
7205;SDS011;3644;53.480;10.004;2023-03-31T18:01:24;3.53;;;2.07;;
7205;SDS011;3644;53.480;10.004;2023-03-31T18:03:50;2.67;;;2.30;;
7205;SDS011;3644;53.480;10.004;2023-03-31T18:06:15;2.13;;;1.90;;
7205;SDS011;3644;53.480;10.004;2023-03-31T18:08:41;5.33;;;2.20;;